| Date | Temp | Humidity | Rainfall | Dew Point | Wind Direction | Wind Speed | Wind Pressure | Condition | Visibility |
|---|---|---|---|---|---|---|---|---|---|
| 2025-06-02 13:02:08 | 34 | 52 | 23 | 24 | 9.5 | 1010 | Fair | 20KM | |
| 2025-06-02 12:02:51 | 33 | 58 | 23 | 230 | 11.4 | 1011 | Fair | 20KM | |
| 2025-06-02 11:02:05 | 32 | 62 | 23 | 230 | 19.0 | 1011 | Fair | 20 KM | |
| 2025-06-02 09:57:41 | 30 | 67 | 24 | 190 | 7.6 | 1012 | Fair | 20 KM | |
| 2025-06-02 09:00:24 | 29 | 73 | 23 | 200 | 7.6 | 1012 | Partly Cloudy (Night) | 20 KM | |
| 2025-06-02 08:04:06 | 27 | 81 | 0.0 | 24 | 210 | 9.5 | 1011 | Partly Cloudy (Day) | 20 KM |
| 2025-06-02 07:01:16 | 26 | 84 | 0.0 | 23 | 190 | 7.6 | 1011 | Partly Cloudy (Day) | 20 KM |
| 2025-06-02 06:00:26 | 26 | 87 | 0.0 | 23 | 170 | 5.7 | 1011 | Partly Cloudy (Night) | 10 KM |
| 2025-06-02 05:01:36 | 26 | 85 | 0.0 | 23 | 210 | 9.5 | 1011 | Partly Cloudy (Night) | 10 KM |
| 2025-06-02 04:02:18 | 26 | 84 | 0.0 | 23 | 230 | 7.6 | 1011 | Partly Cloudy (Night) | 10 KM |
| 2025-06-02 03:02:06 | 26 | 88 | 0.0 | 24 | 220 | 7.6 | 1011 | Partly Cloudy (Night) | 10 KM |
| 2025-06-02 02:00:46 | 26 | 88 | 0.00 | 24 | 190 | 5.7 | 1011 | Partly Cloudy (Night) | 10KM |
| 2025-06-02 01:01:38 | 27 | 87 | 0.00 | 24 | 160 | 5.7 | 1012 | Partly Cloudy (Night) | 10KM |
| 2025-06-01 23:59:49 | 27 | 83 | 0.00 | 24 | 180 | 7.6 | 1012 | Partly Cloudy (Night) | 10KM |
| 2025-06-01 23:00:58 | 27 | 83 | 0.00 | 24 | 150 | 3.8 | 1013 | Partly Cloudy (Night) | 10KM |
| 2025-06-01 22:00:49 | 27 | 83 | 0.00 | 24 | 170 | 7.6 | 1012 | Partly Cloudy (Night) | 10KM |
| 2025-06-01 20:59:39 | 28 | 79 | 24 | 210 | 7.6 | 1012 | Partly Cloudy (Night) | 10 KM | |
| 2025-06-01 19:59:00 | 29 | 77 | 24 | 200 | 11.4 | 1011 | Partly Cloudy (Night) | 10 KM | |
| 2025-06-01 18:59:52 | 30 | 77 | 25 | 250 | 5.7 | 1010 | Partly Cloudy (Day) | 20 KM | |
| 2025-06-01 18:02:30 | 31 | 72 | 25 | 280 | 11.4 | 1010 | Partly Cloudy (Day) | 20 KM | |
| 2025-06-01 16:57:31 | 32 | 67 | 0.0 | 25 | 270 | 13.3 | 1009 | Partly Cloudy (Day) | 20 KM |
| 2025-06-01 15:57:20 | 32 | 67 | 0.0 | 25 | 320 | 17.1 | 1009 | Partly Cloudy (Day) | 20 KM |
| 2025-06-01 14:58:57 | 33 | 62 | 0.0 | 24 | 280 | 19.0 | 1009 | Partly Cloudy (Day) | 20 KM |
| 2025-06-01 13:59:05 | 34 | 51 | 0.0 | 22 | 300 | 20.9 | 1010 | Distant showers | 15 KM |
| 2025-06-01 12:57:54 | 33 | 62 | 0.00 | 26 | 300 | 15.2 | 1011 | Distant showers | 20KM |